createdAt,value
2023-04-10T00:00:02.846Z,9.80
2023-04-10T00:02:50.351Z,9.70
2023-04-10T00:05:36.375Z,9.70
2023-04-10T00:08:22.953Z,9.70
2023-04-10T00:11:08.465Z,9.70
2023-04-10T00:13:54.391Z,9.70
2023-04-10T00:16:40.245Z,9.50
2023-04-10T00:19:25.602Z,9.40
2023-04-10T00:22:11.295Z,9.40
2023-04-10T00:24:56.629Z,9.30
2023-04-10T00:27:42.416Z,9.40
2023-04-10T00:30:27.971Z,9.40
2023-04-10T00:33:13.632Z,9.60
2023-04-10T00:35:59.207Z,9.50
2023-04-10T00:38:44.983Z,9.30
2023-04-10T00:41:30.744Z,9.20
2023-04-10T00:44:16.395Z,9.20
2023-04-10T00:47:01.848Z,9.10
2023-04-10T00:49:47.610Z,8.90
2023-04-10T00:52:33.433Z,9.00
2023-04-10T00:55:19.112Z,9.00
2023-04-10T00:58:04.549Z,9.00
2023-04-10T01:00:51.139Z,9.00
2023-04-10T01:03:37.028Z,9.00
2023-04-10T01:06:41.589Z,9.20
2023-04-10T01:09:39.615Z,9.20
2023-04-10T01:12:30.998Z,9.20
2023-04-10T01:15:18.261Z,9.30
2023-04-10T01:18:16.995Z,9.10
2023-04-10T01:21:05.691Z,9.20
2023-04-10T01:23:54.679Z,9.00
2023-04-10T01:26:59.702Z,11.50
2023-04-10T01:29:51.236Z,8.80
2023-04-10T01:32:37.076Z,8.90
2023-04-10T01:35:23.171Z,9.00
2023-04-10T01:38:09.447Z,9.10
2023-04-10T01:40:55.351Z,9.20
2023-04-10T01:43:49.021Z,9.20
2023-04-10T01:46:35.672Z,9.10
2023-04-10T01:49:21.571Z,9.00
2023-04-10T01:52:07.150Z,8.80
2023-04-10T01:54:53.325Z,9.00
2023-04-10T01:57:45.761Z,8.90
2023-04-10T02:00:37.285Z,9.00
2023-04-10T02:03:23.109Z,8.90
2023-04-10T02:06:12.022Z,8.90
2023-04-10T02:09:03.419Z,8.80
2023-04-10T02:11:57.396Z,8.70
2023-04-10T02:14:45.114Z,8.70
2023-04-10T02:17:31.535Z,8.60
2023-04-10T02:20:18.659Z,8.60
2023-04-10T02:23:05.535Z,8.50
2023-04-10T02:25:51.071Z,8.60
2023-04-10T02:28:39.986Z,8.60
2023-04-10T02:31:25.862Z,8.40
2023-04-10T02:34:12.951Z,8.30
2023-04-10T02:36:58.235Z,8.40
2023-04-10T02:39:44.424Z,8.40
2023-04-10T02:42:29.971Z,8.50
2023-04-10T02:45:18.666Z,8.40
2023-04-10T02:48:05.738Z,8.40
2023-04-10T02:50:55.687Z,8.30
2023-04-10T02:53:41.398Z,8.30
2023-04-10T02:56:27.280Z,8.20
2023-04-10T02:59:13.312Z,8.30
2023-04-10T03:01:59.649Z,8.30
2023-04-10T03:04:45.923Z,8.20
2023-04-10T03:07:32.315Z,8.30
2023-04-10T03:10:17.618Z,8.80
2023-04-10T03:13:03.232Z,9.70
2023-04-10T03:15:49.069Z,10.40
2023-04-10T03:18:34.915Z,11.00
2023-04-10T03:21:21.593Z,11.50
2023-04-10T03:24:07.952Z,11.80
2023-04-10T03:26:53.699Z,12.10
2023-04-10T03:29:39.358Z,12.30
2023-04-10T03:32:28.066Z,12.50
2023-04-10T03:35:14.026Z,12.60
2023-04-10T03:37:59.565Z,12.80
2023-04-10T03:40:45.060Z,12.90
2023-04-10T03:43:31.406Z,13.00
2023-04-10T03:46:17.801Z,13.10
2023-04-10T03:49:04.181Z,13.20
2023-04-10T03:51:51.747Z,13.20
2023-04-10T03:54:37.312Z,13.30
2023-04-10T03:57:23.109Z,13.30
2023-04-10T04:00:09.809Z,13.40
2023-04-10T04:03:07.401Z,13.40
2023-04-10T04:06:11.101Z,13.50
2023-04-10T04:09:17.230Z,13.50
2023-04-10T04:12:15.436Z,13.60
2023-04-10T04:15:20.350Z,13.60
2023-04-10T04:18:13.232Z,13.60
2023-04-10T04:21:01.894Z,13.60
2023-04-10T04:24:10.299Z,13.70
2023-04-10T04:27:15.457Z,13.70
2023-04-10T04:30:22.542Z,13.70
2023-04-10T04:33:26.304Z,13.80
2023-04-10T04:36:25.846Z,13.80
2023-04-10T04:39:23.514Z,13.80
2023-04-10T04:42:38.038Z,13.80
2023-04-10T04:45:45.194Z,13.80
2023-04-10T04:48:49.881Z,13.90
2023-04-10T04:51:58.439Z,13.90
2023-04-10T04:54:57.908Z,13.90
2023-04-10T04:57:54.998Z,13.90
2023-04-10T05:01:00.288Z,13.90
2023-04-10T05:04:06.536Z,14.00
2023-04-10T05:06:55.802Z,14.00
2023-04-10T05:10:00.166Z,14.00
2023-04-10T05:13:24.447Z,14.00
2023-04-10T05:16:31.575Z,14.00
2023-04-10T05:19:31.014Z,14.00
2023-04-10T05:22:35.542Z,13.10
2023-04-10T05:25:42.382Z,14.10
2023-04-10T05:28:40.054Z,14.10
2023-04-10T05:31:46.203Z,14.10
2023-04-10T05:34:39.039Z,14.10
2023-04-10T05:37:31.216Z,14.20
2023-04-10T05:40:21.286Z,14.20
2023-04-10T05:43:15.488Z,14.20
2023-04-10T05:46:19.508Z,14.20
2023-04-10T05:49:24.131Z,14.20
2023-04-10T05:52:33.004Z,14.20
2023-04-10T05:55:41.835Z,14.20
2023-04-10T05:58:42.788Z,14.30
2023-04-10T06:01:34.169Z,14.30
2023-04-10T06:04:22.056Z,14.30
2023-04-10T06:07:10.901Z,14.30
2023-04-10T06:09:56.844Z,14.30
2023-04-10T06:12:42.422Z,14.30
2023-04-10T06:15:29.940Z,14.40
2023-04-10T06:18:16.154Z,14.40
2023-04-10T06:21:04.650Z,14.40
2023-04-10T06:23:51.207Z,14.40
2023-04-10T06:26:38.308Z,14.40
2023-04-10T06:29:24.161Z,14.40
2023-04-10T06:32:09.819Z,14.50
2023-04-10T06:34:57.576Z,14.40
2023-04-10T06:37:43.733Z,14.50
2023-04-10T06:40:30.662Z,14.50
2023-04-10T06:43:16.317Z,14.50
2023-04-10T06:46:06.082Z,14.50
2023-04-10T06:48:51.345Z,14.60
2023-04-10T06:51:37.630Z,14.60
2023-04-10T06:54:23.266Z,14.60
2023-04-10T06:57:08.995Z,14.60
2023-04-10T06:59:54.903Z,14.60
2023-04-10T07:02:40.610Z,14.60
2023-04-10T07:05:26.046Z,14.60
2023-04-10T07:08:11.501Z,14.70
2023-04-10T07:10:58.555Z,14.60
2023-04-10T07:13:44.220Z,14.70
2023-04-10T07:16:30.179Z,14.70
2023-04-10T07:19:15.672Z,14.70
2023-04-10T07:22:01.420Z,14.70
2023-04-10T07:24:47.099Z,14.70
2023-04-10T07:27:32.862Z,14.80
2023-04-10T07:30:18.794Z,14.80
2023-04-10T07:33:04.436Z,14.80
2023-04-10T07:35:50.608Z,14.80
2023-04-10T07:38:36.036Z,14.80
2023-04-10T07:41:22.311Z,14.80
2023-04-10T07:44:07.785Z,18.90
2023-04-10T07:46:53.824Z,14.90
2023-04-10T07:49:39.328Z,14.90
2023-04-10T07:52:24.861Z,14.90
2023-04-10T07:55:10.652Z,14.90
2023-04-10T07:57:56.251Z,14.90
2023-04-10T08:00:41.684Z,14.90
2023-04-10T08:03:28.408Z,14.90
2023-04-10T08:06:14.334Z,14.90
2023-04-10T08:09:00.110Z,15.00
2023-04-10T08:11:45.446Z,15.00
2023-04-10T08:14:31.086Z,15.00
2023-04-10T08:17:16.894Z,15.10
2023-04-10T08:20:04.432Z,15.00
2023-04-10T08:22:50.076Z,15.10
2023-04-10T08:25:35.700Z,15.10
2023-04-10T08:28:21.389Z,15.20
2023-04-10T08:31:07.085Z,15.20
2023-04-10T08:33:53.034Z,15.30
2023-04-10T08:36:39.018Z,15.30
2023-04-10T08:39:24.900Z,15.30
2023-04-10T08:42:10.381Z,15.40
2023-04-10T08:44:56.051Z,15.40
2023-04-10T08:47:44.131Z,15.40
2023-04-10T08:50:31.189Z,15.50
2023-04-10T08:53:18.093Z,15.50
2023-04-10T08:56:04.103Z,15.50
2023-04-10T08:58:51.538Z,15.60
2023-04-10T09:01:37.582Z,15.60
2023-04-10T09:04:24.170Z,15.60
2023-04-10T09:07:10.272Z,15.60
2023-04-10T09:09:56.389Z,15.70
2023-04-10T09:12:45.956Z,15.70
2023-04-10T09:15:31.212Z,15.70
2023-04-10T09:18:16.921Z,15.80
2023-04-10T09:21:09.353Z,15.80
2023-04-10T09:24:01.411Z,15.90
2023-04-10T09:26:47.105Z,15.90
2023-04-10T09:29:42.969Z,15.90
2023-04-10T09:32:41.699Z,16.00
2023-04-10T09:35:36.847Z,16.00
2023-04-10T09:38:22.410Z,16.00
2023-04-10T09:41:08.624Z,16.10
2023-04-10T09:44:05.368Z,16.10
2023-04-10T09:46:51.432Z,16.10
2023-04-10T09:49:48.266Z,16.20
2023-04-10T09:52:34.729Z,16.20
2023-04-10T09:55:20.047Z,16.20
2023-04-10T09:58:06.150Z,16.30
2023-04-10T10:00:52.201Z,16.40
2023-04-10T10:03:38.725Z,19.80
2023-04-10T10:06:24.397Z,16.50
2023-04-10T10:09:09.707Z,16.50
2023-04-10T10:11:55.657Z,16.60
2023-04-10T10:14:57.398Z,16.60
2023-04-10T10:17:51.466Z,16.70
2023-04-10T10:20:37.220Z,16.70
2023-04-10T10:23:23.428Z,15.70
2023-04-10T10:26:09.839Z,16.80
2023-04-10T10:28:56.602Z,16.80
2023-04-10T10:31:42.796Z,16.90
2023-04-10T10:34:28.751Z,17.00
2023-04-10T10:37:14.845Z,17.00
2023-04-10T10:40:23.638Z,17.10
2023-04-10T10:43:14.842Z,17.20
2023-04-10T10:46:10.143Z,17.30
2023-04-10T10:48:59.472Z,17.40
2023-04-10T10:51:46.733Z,17.50
2023-04-10T10:54:33.125Z,17.60
2023-04-10T10:57:54.371Z,17.70
2023-04-10T11:00:51.776Z,17.70
2023-04-10T11:03:37.673Z,17.80
2023-04-10T11:06:44.757Z,17.90
2023-04-10T11:09:46.864Z,18.00
2023-04-10T11:12:52.820Z,18.10
2023-04-10T11:15:40.634Z,18.10
2023-04-10T11:18:46.501Z,18.20
2023-04-10T11:21:32.632Z,18.20
2023-04-10T11:24:17.984Z,18.30
2023-04-10T11:27:03.436Z,18.30
2023-04-10T11:29:49.072Z,18.30
2023-04-10T11:32:41.421Z,18.30
2023-04-10T11:35:28.186Z,18.30
2023-04-10T11:38:17.810Z,18.30
2023-04-10T11:41:04.743Z,18.30
2023-04-10T11:43:53.234Z,18.30
2023-04-10T11:46:38.897Z,18.30
2023-04-10T11:49:26.458Z,18.30
2023-04-10T11:52:12.041Z,18.30
2023-04-10T11:54:57.807Z,18.30
2023-04-10T11:57:44.313Z,18.40
2023-04-10T12:00:29.818Z,18.40
2023-04-10T12:03:15.775Z,18.30
2023-04-10T12:06:01.671Z,18.40
2023-04-10T12:08:51.164Z,18.40
2023-04-10T12:11:36.841Z,18.40
2023-04-10T12:14:23.461Z,18.40
2023-04-10T12:17:10.028Z,18.40
2023-04-10T12:19:56.061Z,18.40
2023-04-10T12:22:43.459Z,18.50
2023-04-10T12:25:29.063Z,18.50
2023-04-10T12:28:18.696Z,19.50
2023-04-10T12:31:04.931Z,18.70
2023-04-10T12:33:53.674Z,18.60
2023-04-10T12:36:39.239Z,18.70
2023-04-10T12:39:25.537Z,18.70
2023-04-10T12:42:14.694Z,18.80
2023-04-10T12:45:01.039Z,18.80
2023-04-10T12:47:51.801Z,18.90
2023-04-10T12:50:47.808Z,18.90
2023-04-10T12:53:42.595Z,19.00
2023-04-10T12:56:39.543Z,19.00
2023-04-10T12:59:26.539Z,19.10
2023-04-10T13:02:12.036Z,19.10
2023-04-10T13:04:57.803Z,19.10
2023-04-10T13:07:43.274Z,19.20
2023-04-10T13:10:29.028Z,19.20
2023-04-10T13:13:14.544Z,19.20
2023-04-10T13:16:00.794Z,19.30
2023-04-10T13:18:46.385Z,19.30
2023-04-10T13:21:32.352Z,19.40
2023-04-10T13:24:17.996Z,19.40
2023-04-10T13:27:03.594Z,19.50
2023-04-10T13:29:49.219Z,19.60
2023-04-10T13:32:35.325Z,19.70
2023-04-10T13:35:23.104Z,19.80
2023-04-10T13:38:09.513Z,19.90
2023-04-10T13:40:55.599Z,19.90
2023-04-10T13:43:40.994Z,20.00
2023-04-10T13:46:26.746Z,20.10
2023-04-10T13:49:17.263Z,20.20
2023-04-10T13:52:03.030Z,20.20
2023-04-10T13:54:48.856Z,20.20
2023-04-10T13:57:34.801Z,20.20
2023-04-10T14:00:20.819Z,20.20
2023-04-10T14:03:10.702Z,20.10
2023-04-10T14:05:56.707Z,20.10
2023-04-10T14:08:42.911Z,20.00
2023-04-10T14:11:28.746Z,19.90
2023-04-10T14:14:14.829Z,19.90
2023-04-10T14:17:00.706Z,19.80
2023-04-10T14:19:48.299Z,19.70
2023-04-10T14:22:34.021Z,19.70
2023-04-10T14:25:19.590Z,19.70
2023-04-10T14:28:05.409Z,19.80
2023-04-10T14:30:51.874Z,18.70
2023-04-10T14:33:37.352Z,20.20
2023-04-10T14:36:23.090Z,20.40
2023-04-10T14:39:08.677Z,20.50
2023-04-10T14:41:54.967Z,20.50
2023-04-10T14:44:41.540Z,20.50
2023-04-10T14:47:27.345Z,20.50
2023-04-10T14:50:14.191Z,20.50
2023-04-10T14:53:00.890Z,20.50
2023-04-10T14:55:46.823Z,20.60
2023-04-10T14:58:32.762Z,20.60
2023-04-10T15:01:18.402Z,20.70
2023-04-10T15:04:04.187Z,20.70
2023-04-10T15:06:51.267Z,20.70
2023-04-10T15:09:37.571Z,20.60
2023-04-10T15:12:24.741Z,20.60
2023-04-10T15:15:10.758Z,20.60
2023-04-10T15:17:56.104Z,20.40
2023-04-10T15:20:42.106Z,20.40
2023-04-10T15:23:27.721Z,20.20
2023-04-10T15:26:16.796Z,20.10
2023-04-10T15:29:02.324Z,20.00
2023-04-10T15:31:48.005Z,19.90
2023-04-10T15:34:33.364Z,19.80
2023-04-10T15:37:19.266Z,19.70
2023-04-10T15:40:05.086Z,19.60
2023-04-10T15:42:50.654Z,19.50
2023-04-10T15:45:37.100Z,19.50
2023-04-10T15:48:24.556Z,19.40
2023-04-10T15:51:10.032Z,19.30
2023-04-10T15:53:55.927Z,19.30
2023-04-10T15:56:41.802Z,19.30
2023-04-10T15:59:27.560Z,19.20
2023-04-10T16:02:13.328Z,19.20
2023-04-10T16:04:58.852Z,19.10
2023-04-10T16:07:44.399Z,19.10
2023-04-10T16:10:30.607Z,19.10
2023-04-10T16:13:16.285Z,19.10
2023-04-10T16:16:01.648Z,19.10
2023-04-10T16:18:47.299Z,19.10
2023-04-10T16:21:32.621Z,19.10
2023-04-10T16:24:18.379Z,19.00
2023-04-10T16:27:03.762Z,19.00
2023-04-10T16:29:49.437Z,19.00
2023-04-10T16:32:34.840Z,19.00
2023-04-10T16:35:20.517Z,18.90
2023-04-10T16:38:06.343Z,18.90
2023-04-10T16:40:51.861Z,18.90
2023-04-10T16:43:37.380Z,18.80
2023-04-10T16:46:23.038Z,18.90
2023-04-10T16:49:08.507Z,18.80
2023-04-10T16:51:54.113Z,18.80
2023-04-10T16:54:39.758Z,18.80
2023-04-10T16:57:25.328Z,18.80
2023-04-10T17:00:11.563Z,18.80
2023-04-10T17:03:00.306Z,18.80
2023-04-10T17:05:46.299Z,18.80
2023-04-10T17:08:32.017Z,18.70
2023-04-10T17:11:17.817Z,18.80
2023-04-10T17:14:03.847Z,18.80
2023-04-10T17:16:49.605Z,18.80
2023-04-10T17:19:35.001Z,18.80
2023-04-10T17:22:23.180Z,18.80
2023-04-10T17:25:09.161Z,18.80
2023-04-10T17:27:54.496Z,18.80
2023-04-10T17:30:40.429Z,18.80
2023-04-10T17:33:26.314Z,18.80
2023-04-10T17:36:12.556Z,18.80
2023-04-10T17:38:58.322Z,18.80
2023-04-10T17:41:43.986Z,18.80
2023-04-10T17:44:29.734Z,18.70
2023-04-10T17:47:16.427Z,18.70
2023-04-10T17:50:05.196Z,18.70
2023-04-10T17:52:50.550Z,18.80
2023-04-10T17:55:39.672Z,18.70
2023-04-10T17:58:25.491Z,18.80
2023-04-10T18:01:11.262Z,19.00
2023-04-10T18:03:57.587Z,18.70
2023-04-10T18:06:43.442Z,18.70
2023-04-10T18:09:29.095Z,18.80
2023-04-10T18:12:14.899Z,18.70
2023-04-10T18:15:00.583Z,18.70
2023-04-10T18:17:46.125Z,18.70
2023-04-10T18:20:31.722Z,18.70
2023-04-10T18:23:17.662Z,18.70
2023-04-10T18:26:04.274Z,18.70
2023-04-10T18:28:49.925Z,18.70
2023-04-10T18:31:35.593Z,18.70
2023-04-10T18:34:21.218Z,18.70
2023-04-10T18:37:09.012Z,18.70
2023-04-10T18:39:56.897Z,18.60
2023-04-10T18:42:44.418Z,18.60
2023-04-10T18:45:29.723Z,18.60
2023-04-10T18:48:15.391Z,18.60
2023-04-10T18:51:01.016Z,18.60
2023-04-10T18:53:46.797Z,18.50
2023-04-10T18:56:32.643Z,18.60
2023-04-10T18:59:18.401Z,18.60
2023-04-10T19:02:04.243Z,18.50
2023-04-10T19:04:50.083Z,18.50
2023-04-10T19:07:35.570Z,18.40
2023-04-10T19:10:21.359Z,18.50
2023-04-10T19:13:06.946Z,18.50
2023-04-10T19:15:52.827Z,18.50
2023-04-10T19:18:38.432Z,18.50
2023-04-10T19:21:24.168Z,18.50
2023-04-10T19:24:10.631Z,18.50
2023-04-10T19:26:56.535Z,18.50
2023-04-10T19:29:46.724Z,18.50
2023-04-10T19:32:35.167Z,18.40
2023-04-10T19:35:22.611Z,18.40
2023-04-10T19:38:07.889Z,18.40
2023-04-10T19:40:54.790Z,18.40
2023-04-10T19:43:40.591Z,18.40
2023-04-10T19:46:26.359Z,18.20
2023-04-10T19:49:12.237Z,18.10
2023-04-10T19:51:57.670Z,18.10
2023-04-10T19:54:43.374Z,18.00
2023-04-10T19:57:29.218Z,17.80
2023-04-10T20:00:14.928Z,17.80
2023-04-10T20:03:00.538Z,17.80
2023-04-10T20:05:46.371Z,17.70
2023-04-10T20:08:31.957Z,17.80
2023-04-10T20:11:17.785Z,17.70
2023-04-10T20:14:03.394Z,17.70
2023-04-10T20:16:48.960Z,17.70
2023-04-10T20:19:34.915Z,17.60
2023-04-10T20:22:20.373Z,17.60
2023-04-10T20:25:06.067Z,17.60
2023-04-10T20:27:51.419Z,17.60
2023-04-10T20:30:40.345Z,17.60
2023-04-10T20:33:26.091Z,17.50
2023-04-10T20:36:11.966Z,17.50
2023-04-10T20:38:57.730Z,17.50
2023-04-10T20:41:43.359Z,17.50
2023-04-10T20:44:29.110Z,17.50
2023-04-10T20:47:15.052Z,17.50
2023-04-10T20:50:00.357Z,17.50
2023-04-10T20:52:46.058Z,17.50
2023-04-10T20:55:31.717Z,17.40
2023-04-10T20:58:17.396Z,16.90
2023-04-10T21:01:03.283Z,16.50
2023-04-10T21:03:48.755Z,16.00
2023-04-10T21:06:34.143Z,15.80
2023-04-10T21:09:20.545Z,15.60
2023-04-10T21:12:05.832Z,15.50
2023-04-10T21:14:51.619Z,15.30
2023-04-10T21:17:37.159Z,15.30
2023-04-10T21:20:23.089Z,15.30
2023-04-10T21:23:10.577Z,15.10
2023-04-10T21:25:56.221Z,12.00
2023-04-10T21:28:42.155Z,14.90
2023-04-10T21:31:27.734Z,14.90
2023-04-10T21:34:13.228Z,14.70
2023-04-10T21:36:58.954Z,14.70
2023-04-10T21:39:44.219Z,14.60
2023-04-10T21:42:30.024Z,14.60
2023-04-10T21:45:15.747Z,14.50
2023-04-10T21:48:01.099Z,14.50
2023-04-10T21:50:47.034Z,14.60
2023-04-10T21:53:32.401Z,14.50
2023-04-10T21:56:18.185Z,14.50
2023-04-10T21:59:03.910Z,14.50
2023-04-10T22:01:49.654Z,14.30
2023-04-10T22:04:38.927Z,14.20
2023-04-10T22:07:30.209Z,14.10
2023-04-10T22:10:15.928Z,14.10
2023-04-10T22:13:01.334Z,14.20
2023-04-10T22:15:47.366Z,14.10
2023-04-10T22:18:33.745Z,14.10
2023-04-10T22:21:19.228Z,14.00
2023-04-10T22:24:05.042Z,14.00
2023-04-10T22:26:50.598Z,13.90
2023-04-10T22:29:36.145Z,13.90
2023-04-10T22:32:21.629Z,13.80
2023-04-10T22:35:07.807Z,14.00
2023-04-10T22:37:53.191Z,13.90
2023-04-10T22:40:38.930Z,14.00
2023-04-10T22:43:24.573Z,13.90
2023-04-10T22:46:10.940Z,13.90
2023-04-10T22:48:56.570Z,13.80
2023-04-10T22:51:42.344Z,13.80
2023-04-10T22:54:30.733Z,13.70
2023-04-10T22:57:16.373Z,13.70
2023-04-10T23:00:02.118Z,13.70
2023-04-10T23:02:47.801Z,13.70
2023-04-10T23:05:33.375Z,13.60
2023-04-10T23:08:18.919Z,13.60
2023-04-10T23:11:04.582Z,13.60
2023-04-10T23:13:50.281Z,13.50
2023-04-10T23:16:35.933Z,13.40
2023-04-10T23:19:21.684Z,13.50
2023-04-10T23:22:07.267Z,13.40
2023-04-10T23:24:53.604Z,13.40
2023-04-10T23:27:39.076Z,13.30
2023-04-10T23:30:24.763Z,13.30
2023-04-10T23:33:10.497Z,13.30
2023-04-10T23:35:56.243Z,13.20
2023-04-10T23:38:41.733Z,13.30
2023-04-10T23:41:27.400Z,13.30
2023-04-10T23:44:12.982Z,13.30
2023-04-10T23:46:58.504Z,13.20
2023-04-10T23:49:44.184Z,13.20
2023-04-10T23:52:29.737Z,13.10
2023-04-10T23:55:15.564Z,13.10
2023-04-10T23:58:01.593Z,13.10
